sensor_id;sensor_type;location;lat;lon;timestamp;pressure;altitude;pressure_sealevel;temperature;humidity
56414;BME280;42318;48.452;19.526;2023-05-20T00:00:02;98844.28;;;20.81;53.03
56414;BME280;42318;48.452;19.526;2023-05-20T00:07:33;98834.66;;;20.73;52.99
56414;BME280;42318;48.452;19.526;2023-05-20T00:15:04;98828.66;;;20.71;53.21
56414;BME280;42318;48.452;19.526;2023-05-20T00:22:35;98826.44;;;20.68;53.38
56414;BME280;42318;48.452;19.526;2023-05-20T00:30:07;98815.22;;;20.64;53.46
56414;BME280;42318;48.452;19.526;2023-05-20T00:37:38;98808.38;;;20.62;53.49
56414;BME280;42318;48.452;19.526;2023-05-20T00:45:09;98819.53;;;20.60;53.33
56414;BME280;42318;48.452;19.526;2023-05-20T00:52:40;98811.59;;;20.59;53.32
56414;BME280;42318;48.452;19.526;2023-05-20T01:00:14;98800.97;;;20.57;53.27
56414;BME280;42318;48.452;19.526;2023-05-20T01:07:45;98806.41;;;20.57;53.41
56414;BME280;42318;48.452;19.526;2023-05-20T01:15:17;98803.94;;;20.56;53.52
56414;BME280;42318;48.452;19.526;2023-05-20T01:22:52;98825.16;;;20.54;53.37
56414;BME280;42318;48.452;19.526;2023-05-20T01:30:29;98820.22;;;20.51;53.30
56414;BME280;42318;48.452;19.526;2023-05-20T01:38:01;98825.09;;;20.49;53.46
56414;BME280;42318;48.452;19.526;2023-05-20T01:45:32;98823.19;;;20.49;53.67
56414;BME280;42318;48.452;19.526;2023-05-20T01:53:03;98815.28;;;20.48;53.48
56414;BME280;42318;48.452;19.526;2023-05-20T02:00:34;98818.25;;;20.46;53.52
56414;BME280;42318;48.452;19.526;2023-05-20T02:08:05;98809.81;;;20.48;53.38
56414;BME280;42318;48.452;19.526;2023-05-20T02:15:40;98803.38;;;20.54;53.53
56414;BME280;42318;48.452;19.526;2023-05-20T02:23:11;98810.47;;;20.55;53.42
56414;BME280;42318;48.452;19.526;2023-05-20T02:30:42;98806.34;;;20.52;53.52
56414;BME280;42318;48.452;19.526;2023-05-20T02:38:13;98803.38;;;20.54;53.27
56414;BME280;42318;48.452;19.526;2023-05-20T02:45:44;98803.69;;;20.57;53.07
56414;BME280;42318;48.452;19.526;2023-05-20T02:53:14;98801.53;;;20.59;53.37
56414;BME280;42318;48.452;19.526;2023-05-20T03:00:45;98807.75;;;20.55;53.26
56414;BME280;42318;48.452;19.526;2023-05-20T03:08:18;98806.66;;;20.56;53.34
56414;BME280;42318;48.452;19.526;2023-05-20T03:15:50;98810.22;;;20.56;53.21
56414;BME280;42318;48.452;19.526;2023-05-20T03:23:21;98803.13;;;20.55;53.35
56414;BME280;42318;48.452;19.526;2023-05-20T03:30:51;98813.94;;;20.50;53.16
56414;BME280;42318;48.452;19.526;2023-05-20T03:38:22;98826.47;;;20.51;53.37
56414;BME280;42318;48.452;19.526;2023-05-20T03:45:53;98834.72;;;20.56;53.13
56414;BME280;42318;48.452;19.526;2023-05-20T03:53:24;98851.38;;;20.60;53.18
56414;BME280;42318;48.452;19.526;2023-05-20T04:00:55;98847.91;;;20.64;52.77
56414;BME280;42318;48.452;19.526;2023-05-20T04:08:25;98849.03;;;20.68;53.14
56414;BME280;42318;48.452;19.526;2023-05-20T04:15:56;98855.88;;;20.71;52.86
56414;BME280;42318;48.452;19.526;2023-05-20T04:23:27;98866.59;;;20.78;52.61
56414;BME280;42318;48.452;19.526;2023-05-20T04:31:01;98869.00;;;20.74;52.57
56414;BME280;42318;48.452;19.526;2023-05-20T04:38:34;98877.81;;;20.81;52.40
56414;BME280;42318;48.452;19.526;2023-05-20T04:46:05;98875.09;;;20.81;52.67
56414;BME280;42318;48.452;19.526;2023-05-20T04:53:36;98877.22;;;20.79;52.91
56414;BME280;42318;48.452;19.526;2023-05-20T05:01:07;98884.25;;;20.75;52.71
56414;BME280;42318;48.452;19.526;2023-05-20T05:08:38;98883.69;;;20.73;52.77
56414;BME280;42318;48.452;19.526;2023-05-20T05:16:09;98876.00;;;20.70;52.89
56414;BME280;42318;48.452;19.526;2023-05-20T05:23:40;98892.59;;;20.68;52.98
56414;BME280;42318;48.452;19.526;2023-05-20T05:31:12;98886.34;;;20.68;52.89
56414;BME280;42318;48.452;19.526;2023-05-20T05:38:42;98889.31;;;20.66;52.80
56414;BME280;42318;48.452;19.526;2023-05-20T05:46:14;98884.63;;;20.62;53.30
56414;BME280;42318;48.452;19.526;2023-05-20T05:53:45;98892.84;;;20.67;52.93
56414;BME280;42318;48.452;19.526;2023-05-20T06:01:15;98884.69;;;20.67;52.98
56414;BME280;42318;48.452;19.526;2023-05-20T06:08:46;98890.44;;;20.70;53.11
56414;BME280;42318;48.452;19.526;2023-05-20T06:16:17;98886.72;;;20.77;53.27
56414;BME280;42318;48.452;19.526;2023-05-20T06:23:48;98885.50;;;20.84;53.18
56414;BME280;42318;48.452;19.526;2023-05-20T06:31:19;98875.25;;;20.91;53.01
56414;BME280;42318;48.452;19.526;2023-05-20T06:38:50;98891.72;;;21.01;52.73
56414;BME280;42318;48.452;19.526;2023-05-20T06:46:21;98880.81;;;21.01;52.81
56414;BME280;42318;48.452;19.526;2023-05-20T06:53:51;98882.28;;;21.09;52.49
56414;BME280;42318;48.452;19.526;2023-05-20T07:01:22;98875.81;;;21.15;52.47
56414;BME280;42318;48.452;19.526;2023-05-20T07:08:53;98884.81;;;21.16;52.54
56414;BME280;42318;48.452;19.526;2023-05-20T07:16:24;98880.94;;;21.12;52.70
56414;BME280;42318;48.452;19.526;2023-05-20T07:23:55;98869.91;;;21.01;52.83
56414;BME280;42318;48.452;19.526;2023-05-20T07:31:26;98868.00;;;21.02;52.89
56414;BME280;42318;48.452;19.526;2023-05-20T07:38:56;98874.78;;;20.99;52.93
56414;BME280;42318;48.452;19.526;2023-05-20T07:46:27;98865.75;;;20.94;52.84
56414;BME280;42318;48.452;19.526;2023-05-20T07:53:59;98868.78;;;20.97;53.00
56414;BME280;42318;48.452;19.526;2023-05-20T08:01:30;98872.56;;;20.96;53.07
56414;BME280;42318;48.452;19.526;2023-05-20T08:09:01;98868.22;;;20.95;52.85
56414;BME280;42318;48.452;19.526;2023-05-20T08:16:32;98865.47;;;20.95;52.99
56414;BME280;42318;48.452;19.526;2023-05-20T08:24:03;98854.59;;;20.95;52.85
56414;BME280;42318;48.452;19.526;2023-05-20T08:31:34;98842.56;;;20.91;52.93
56414;BME280;42318;48.452;19.526;2023-05-20T08:39:05;98847.50;;;20.94;52.86
56414;BME280;42318;48.452;19.526;2023-05-20T08:46:37;98854.59;;;20.95;53.06
56414;BME280;42318;48.452;19.526;2023-05-20T08:54:09;98842.88;;;20.95;53.01
56414;BME280;42318;48.452;19.526;2023-05-20T09:01:42;98840.16;;;20.95;53.28
56414;BME280;42318;48.452;19.526;2023-05-20T09:09:13;98834.69;;;20.95;52.93
56414;BME280;42318;48.452;19.526;2023-05-20T09:16:44;98840.97;;;20.95;53.03
56414;BME280;42318;48.452;19.526;2023-05-20T09:24:19;98826.53;;;20.95;53.12
56414;BME280;42318;48.452;19.526;2023-05-20T09:31:50;98827.09;;;20.97;52.88
56414;BME280;42318;48.452;19.526;2023-05-20T09:39:24;98825.19;;;20.97;52.83
56414;BME280;42318;48.452;19.526;2023-05-20T09:47:00;98817.84;;;20.98;53.18
56414;BME280;42318;48.452;19.526;2023-05-20T09:54:32;98805.03;;;20.98;53.09
56414;BME280;42318;48.452;19.526;2023-05-20T10:02:04;98800.69;;;20.97;53.12
56414;BME280;42318;48.452;19.526;2023-05-20T10:17:43;98787.38;;;21.01;52.94
56414;BME280;42318;48.452;19.526;2023-05-20T10:25:24;98780.28;;;21.00;53.09
56414;BME280;42318;48.452;19.526;2023-05-20T10:33:01;98757.66;;;20.99;53.15
56414;BME280;42318;48.452;19.526;2023-05-20T10:40:32;98750.31;;;21.00;52.98
56414;BME280;42318;48.452;19.526;2023-05-20T10:48:03;98747.91;;;21.04;53.12
56414;BME280;42318;48.452;19.526;2023-05-20T10:55:36;98743.25;;;21.04;52.81
56414;BME280;42318;48.452;19.526;2023-05-20T11:03:08;98737.56;;;21.06;53.05
56414;BME280;42318;48.452;19.526;2023-05-20T11:10:41;98731.84;;;21.07;52.96
56414;BME280;42318;48.452;19.526;2023-05-20T11:18:12;98723.69;;;21.07;52.95
56414;BME280;42318;48.452;19.526;2023-05-20T11:25:44;98720.69;;;21.09;53.24
56414;BME280;42318;48.452;19.526;2023-05-20T11:33:16;98700.81;;;21.08;52.96
56414;BME280;42318;48.452;19.526;2023-05-20T11:40:54;98706.81;;;21.10;53.13
56414;BME280;42318;48.452;19.526;2023-05-20T11:48:25;98716.63;;;21.11;53.24
56414;BME280;42318;48.452;19.526;2023-05-20T11:55:59;98711.19;;;21.11;53.21
56414;BME280;42318;48.452;19.526;2023-05-20T12:03:31;98699.97;;;21.08;53.03
56414;BME280;42318;48.452;19.526;2023-05-20T12:11:02;98704.34;;;21.09;53.23
56414;BME280;42318;48.452;19.526;2023-05-20T12:18:33;98695.66;;;21.12;53.37
56414;BME280;42318;48.452;19.526;2023-05-20T12:26:04;98692.94;;;21.12;53.16
56414;BME280;42318;48.452;19.526;2023-05-20T12:33:36;98697.03;;;21.14;53.47
56414;BME280;42318;48.452;19.526;2023-05-20T12:41:07;98686.41;;;21.13;53.13
56414;BME280;42318;48.452;19.526;2023-05-20T12:48:38;98677.09;;;21.09;53.63
56414;BME280;42318;48.452;19.526;2023-05-20T12:56:09;98687.50;;;21.12;53.44
56414;BME280;42318;48.452;19.526;2023-05-20T13:03:40;98664.59;;;21.13;53.42
56414;BME280;42318;48.452;19.526;2023-05-20T13:11:11;98667.59;;;21.11;53.74
56414;BME280;42318;48.452;19.526;2023-05-20T13:18:42;98647.97;;;21.09;53.40
56414;BME280;42318;48.452;19.526;2023-05-20T13:26:13;98657.00;;;21.15;54.38
56414;BME280;42318;48.452;19.526;2023-05-20T13:33:44;98657.03;;;21.20;54.02
56414;BME280;42318;48.452;19.526;2023-05-20T13:41:15;98642.59;;;21.19;54.09
56414;BME280;42318;48.452;19.526;2023-05-20T13:48:46;98639.88;;;21.19;54.17
56414;BME280;42318;48.452;19.526;2023-05-20T13:56:17;98637.41;;;21.18;54.18
56414;BME280;42318;48.452;19.526;2023-05-20T14:03:48;98622.13;;;21.17;54.30
56414;BME280;42318;48.452;19.526;2023-05-20T14:11:18;98619.41;;;21.17;54.31
56414;BME280;42318;48.452;19.526;2023-05-20T14:18:51;98605.78;;;21.17;54.31
56414;BME280;42318;48.452;19.526;2023-05-20T14:26:22;98606.34;;;21.19;54.33
56414;BME280;42318;48.452;19.526;2023-05-20T14:33:53;98605.28;;;21.20;53.86
56414;BME280;42318;48.452;19.526;2023-05-20T14:41:23;98606.66;;;21.22;53.78
56414;BME280;42318;48.452;19.526;2023-05-20T14:48:54;98600.75;;;21.25;53.92
56414;BME280;42318;48.452;19.526;2023-05-20T14:56:25;98584.63;;;21.24;54.08
56414;BME280;42318;48.452;19.526;2023-05-20T15:03:56;98595.53;;;21.24;54.13
56414;BME280;42318;48.452;19.526;2023-05-20T15:11:27;98581.31;;;21.22;53.94
56414;BME280;42318;48.452;19.526;2023-05-20T15:18:58;98579.66;;;21.21;53.89
56414;BME280;42318;48.452;19.526;2023-05-20T15:26:32;98567.13;;;21.20;54.11
56414;BME280;42318;48.452;19.526;2023-05-20T15:34:02;98563.84;;;21.18;53.86
56414;BME280;42318;48.452;19.526;2023-05-20T15:41:36;98552.41;;;21.21;53.98
56414;BME280;42318;48.452;19.526;2023-05-20T15:49:07;98551.09;;;21.23;53.61
56414;BME280;42318;48.452;19.526;2023-05-20T15:56:38;98545.41;;;21.25;54.43
56414;BME280;42318;48.452;19.526;2023-05-20T16:04:11;98543.53;;;21.30;54.31
56414;BME280;42318;48.452;19.526;2023-05-20T16:11:42;98538.34;;;21.29;54.46
56414;BME280;42318;48.452;19.526;2023-05-20T16:19:12;98541.63;;;21.31;54.48
56414;BME280;42318;48.452;19.526;2023-05-20T16:26:43;98542.19;;;21.33;54.53
56414;BME280;42318;48.452;19.526;2023-05-20T16:34:14;98533.75;;;21.35;54.14
56414;BME280;42318;48.452;19.526;2023-05-20T16:41:46;98530.22;;;21.34;54.49
56414;BME280;42318;48.452;19.526;2023-05-20T16:49:17;98529.38;;;21.34;54.28
56414;BME280;42318;48.452;19.526;2023-05-20T16:56:48;98529.66;;;21.32;54.19
56414;BME280;42318;48.452;19.526;2023-05-20T17:04:19;98529.94;;;21.36;53.81
56414;BME280;42318;48.452;19.526;2023-05-20T17:11:50;98534.31;;;21.37;53.90
56414;BME280;42318;48.452;19.526;2023-05-20T17:19:22;98531.03;;;21.35;54.11
56414;BME280;42318;48.452;19.526;2023-05-20T17:26:53;98534.84;;;21.34;54.11
56414;BME280;42318;48.452;19.526;2023-05-20T17:34:23;98533.72;;;21.29;53.85
56414;BME280;42318;48.452;19.526;2023-05-20T17:41:54;98546.56;;;21.34;53.90
56414;BME280;42318;48.452;19.526;2023-05-20T17:49:25;98547.38;;;21.35;54.07
56414;BME280;42318;48.452;19.526;2023-05-20T17:56:56;98553.91;;;21.34;53.93
56414;BME280;42318;48.452;19.526;2023-05-20T18:04:27;98541.94;;;21.35;53.77
56414;BME280;42318;48.452;19.526;2023-05-20T18:11:58;98554.47;;;21.36;54.04
56414;BME280;42318;48.452;19.526;2023-05-20T18:19:29;98573.00;;;21.34;54.14
56414;BME280;42318;48.452;19.526;2023-05-20T18:27:00;98582.81;;;21.35;53.83
56414;BME280;42318;48.452;19.526;2023-05-20T18:34:31;98615.53;;;21.35;53.97
56414;BME280;42318;48.452;19.526;2023-05-20T18:42:02;98633.78;;;21.34;54.03
56414;BME280;42318;48.452;19.526;2023-05-20T18:49:33;98627.50;;;21.34;53.71
56414;BME280;42318;48.452;19.526;2023-05-20T18:57:04;98642.78;;;21.35;54.20
56414;BME280;42318;48.452;19.526;2023-05-20T19:04:35;98592.91;;;21.34;54.14
56414;BME280;42318;48.452;19.526;2023-05-20T19:12:06;98601.06;;;21.34;53.85
56414;BME280;42318;48.452;19.526;2023-05-20T19:19:37;98607.03;;;21.31;54.20
56414;BME280;42318;48.452;19.526;2023-05-20T19:27:11;98611.97;;;21.34;54.06
56414;BME280;42318;48.452;19.526;2023-05-20T19:34:41;98615.78;;;21.33;54.05
56414;BME280;42318;48.452;19.526;2023-05-20T19:42:13;98617.41;;;21.34;54.04
56414;BME280;42318;48.452;19.526;2023-05-20T19:49:44;98617.41;;;21.34;53.75
56414;BME280;42318;48.452;19.526;2023-05-20T19:57:14;98617.13;;;21.30;54.08
56414;BME280;42318;48.452;19.526;2023-05-20T20:04:45;98623.13;;;21.33;54.01
56414;BME280;42318;48.452;19.526;2023-05-20T20:12:16;98632.41;;;21.31;54.23
56414;BME280;42318;48.452;19.526;2023-05-20T20:19:47;98633.22;;;21.32;53.84
56414;BME280;42318;48.452;19.526;2023-05-20T20:27:18;98637.59;;;21.33;53.87
56414;BME280;42318;48.452;19.526;2023-05-20T20:34:49;98640.31;;;21.33;54.21
56414;BME280;42318;48.452;19.526;2023-05-20T20:42:21;98637.84;;;21.31;54.05
56414;BME280;42318;48.452;19.526;2023-05-20T20:49:52;98636.19;;;21.30;54.21
56414;BME280;42318;48.452;19.526;2023-05-20T20:57:23;98625.31;;;21.30;53.87
56414;BME280;42318;48.452;19.526;2023-05-20T21:04:56;98629.66;;;21.31;53.98
56414;BME280;42318;48.452;19.526;2023-05-20T21:12:28;98627.22;;;21.30;54.21
56414;BME280;42318;48.452;19.526;2023-05-20T21:19:59;98628.84;;;21.31;53.89
56414;BME280;42318;48.452;19.526;2023-05-20T21:27:30;98629.66;;;21.31;53.94
56414;BME280;42318;48.452;19.526;2023-05-20T21:35:01;98627.47;;;21.28;53.91
56414;BME280;42318;48.452;19.526;2023-05-20T21:42:32;98630.75;;;21.30;54.03
56414;BME280;42318;48.452;19.526;2023-05-20T21:50:03;98629.09;;;21.29;54.33
56414;BME280;42318;48.452;19.526;2023-05-20T21:57:34;98620.13;;;21.29;54.17
56414;BME280;42318;48.452;19.526;2023-05-20T22:05:05;98619.28;;;21.28;53.74
56414;BME280;42318;48.452;19.526;2023-05-20T22:12:36;98622.00;;;21.28;54.26
56414;BME280;42318;48.452;19.526;2023-05-20T22:20:11;98617.91;;;21.26;54.24
56414;BME280;42318;48.452;19.526;2023-05-20T22:27:42;98619.81;;;21.25;53.96
56414;BME280;42318;48.452;19.526;2023-05-20T22:35:13;98608.66;;;21.27;54.15
56414;BME280;42318;48.452;19.526;2023-05-20T22:42:44;98609.72;;;21.26;54.11
56414;BME280;42318;48.452;19.526;2023-05-20T22:50:15;98622.28;;;21.27;54.24
56414;BME280;42318;48.452;19.526;2023-05-20T22:57:47;98618.72;;;21.26;54.21
56414;BME280;42318;48.452;19.526;2023-05-20T23:05:18;98624.22;;;21.31;54.36
56414;BME280;42318;48.452;19.526;2023-05-20T23:12:49;98633.25;;;21.37;53.76
56414;BME280;42318;48.452;19.526;2023-05-20T23:20:20;98621.81;;;21.40;53.79
56414;BME280;42318;48.452;19.526;2023-05-20T23:27:51;98623.25;;;21.48;53.87
56414;BME280;42318;48.452;19.526;2023-05-20T23:35:22;98621.91;;;21.50;54.29
56414;BME280;42318;48.452;19.526;2023-05-20T23:42:53;98619.19;;;21.55;53.80
56414;BME280;42318;48.452;19.526;2023-05-20T23:50:23;98617.84;;;21.58;53.74
56414;BME280;42318;48.452;19.526;2023-05-20T23:57:54;98600.66;;;21.57;54.25
